Messwerte San Carlos Airport

Temperatur

Temperatur
°C
1579435200 4.00 4.00 5
1579438800 5.00 5.00 5
1579442400 6.00 6.00 5
1579446000 7.00 7.00 5
1579449600 8.00 8.00 7
1579453200 9.00 9.00 7
1579456800 10.00 10.00 8
1579460400 11.00 11.00 9
1579464000 12.00 12.00
1579467600 13.00 13.00 10
1579471200 14.00 14.00 10
1579474800 15.00 15.00 11
1579478400 16.00 16.00 11
1579482000 17.00 17.00
1579485600 18.00 18.00 10
1579489200 19.00 19.00 10
1579492800 20.00 20.00 9
1579496400 21.00 21.00 8
1579500000 22.00 22.00 8
1579503600 23.00 23.00 8
1579507200 0.00 0.00 8
1579510800 1.00 1.00 8
1579514400 2.00 2.00 8
1579518000 3.00 3.00 8

Aktuellste Messwerte

Wettercharakter
Wetter: klar
Temperatur
8 °C
Feuchtigkeit
80 %
Wind
0 km/h, -
Luftdruck
1017 hPa
Messzeit: 20. Januar 2020, 4.00Datenquelle: METAR

Weitere Messstationen in der Nähe

Messstation Temperatur Entfernung
Flughafen San Francisco 9 °C 17 km
Hayward 8 °C 20 km
Oakland 8 °C 27 km
San José 8 °C 33 km
San José - 43 km
Livermore 5 °C 44 km
Concord 7 °C 56 km

Wind

Windrichtung Böen Mittelwind
° km/h km/h
1579435200 4.00 3.00 - 4.00 220° 5
1579438800 5.00 4.00 - 5.00 0
1579442400 6.00 5.00 - 6.00 0
1579446000 7.00 6.00 - 7.00 180° 10
1579449600 8.00 7.00 - 8.00 170° 10
1579453200 9.00 8.00 - 9.00 190° 10
1579456800 10.00 9.00 - 10.00 140° 5
1579460400 11.00 10.00 - 11.00 120° 5
1579464000 12.00 11.00 - 12.00
1579467600 13.00 12.00 - 13.00 5
1579471200 14.00 13.00 - 14.00 90° 5
1579474800 15.00 14.00 - 15.00 60° 5
1579478400 16.00 15.00 - 16.00 0
1579482000 17.00 16.00 - 17.00
1579485600 18.00 17.00 - 18.00 5
1579489200 19.00 18.00 - 19.00 250° 10
1579492800 20.00 19.00 - 20.00 0
1579496400 21.00 20.00 - 21.00 0
1579500000 22.00 21.00 - 22.00 210° 0
1579503600 23.00 22.00 - 23.00 260° 0
1579507200 0.00 23.00 - 0.00 0
1579510800 1.00 0.00 - 1.00 40° 5
1579514400 2.00 1.00 - 2.00 0
1579518000 3.00 2.00 - 3.00 0

Ihre Wetterstation

Fehlt Ihre Wetterstation auf unserem Portal?

Schreiben Sie an network@meteonews.ch

Klima

Wann ist es am wärmsten? Wann regnet es am wenigsten? Unsere Klimadaten geben Auskunft.